sensor_id;sensor_type;location;lat;lon;timestamp;P1;durP1;ratioP1;P2;durP2;ratioP2
30181;SDS011;16990;49.056;9.240;2022-11-15T00:00:27;4.50;;;2.42;;
30181;SDS011;16990;49.056;9.240;2022-11-15T00:02:54;4.55;;;2.75;;
30181;SDS011;16990;49.056;9.240;2022-11-15T00:05:21;4.72;;;2.50;;
30181;SDS011;16990;49.056;9.240;2022-11-15T00:07:48;4.30;;;2.65;;
30181;SDS011;16990;49.056;9.240;2022-11-15T00:10:14;5.43;;;2.95;;
30181;SDS011;16990;49.056;9.240;2022-11-15T00:12:43;6.10;;;2.70;;
30181;SDS011;16990;49.056;9.240;2022-11-15T00:15:09;9.38;;;2.83;;
30181;SDS011;16990;49.056;9.240;2022-11-15T00:17:36;3.28;;;2.45;;
30181;SDS011;16990;49.056;9.240;2022-11-15T00:20:06;6.47;;;2.83;;
30181;SDS011;16990;49.056;9.240;2022-11-15T00:22:34;6.03;;;2.88;;
30181;SDS011;16990;49.056;9.240;2022-11-15T00:25:00;8.68;;;2.67;;
30181;SDS011;16990;49.056;9.240;2022-11-15T00:27:28;7.10;;;3.25;;
30181;SDS011;16990;49.056;9.240;2022-11-15T00:29:56;5.63;;;2.95;;
30181;SDS011;16990;49.056;9.240;2022-11-15T00:32:23;6.82;;;2.88;;
30181;SDS011;16990;49.056;9.240;2022-11-15T00:34:49;5.03;;;3.13;;
30181;SDS011;16990;49.056;9.240;2022-11-15T00:37:16;10.02;;;3.17;;
30181;SDS011;16990;49.056;9.240;2022-11-15T00:39:43;3.75;;;2.35;;
30181;SDS011;16990;49.056;9.240;2022-11-15T00:42:09;8.05;;;2.50;;
30181;SDS011;16990;49.056;9.240;2022-11-15T00:44:36;6.15;;;2.80;;
30181;SDS011;16990;49.056;9.240;2022-11-15T00:47:04;6.20;;;2.90;;
30181;SDS011;16990;49.056;9.240;2022-11-15T00:49:31;4.60;;;2.72;;
30181;SDS011;16990;49.056;9.240;2022-11-15T00:51:57;6.85;;;2.65;;
30181;SDS011;16990;49.056;9.240;2022-11-15T00:54:24;7.28;;;3.22;;
30181;SDS011;16990;49.056;9.240;2022-11-15T00:56:51;5.22;;;2.25;;
30181;SDS011;16990;49.056;9.240;2022-11-15T00:59:17;5.82;;;2.88;;
30181;SDS011;16990;49.056;9.240;2022-11-15T01:01:44;7.95;;;3.30;;
30181;SDS011;16990;49.056;9.240;2022-11-15T01:04:12;9.40;;;4.05;;
30181;SDS011;16990;49.056;9.240;2022-11-15T01:06:39;8.75;;;3.65;;
30181;SDS011;16990;49.056;9.240;2022-11-15T01:09:06;6.60;;;3.63;;
30181;SDS011;16990;49.056;9.240;2022-11-15T01:11:33;8.55;;;3.85;;
30181;SDS011;16990;49.056;9.240;2022-11-15T01:13:59;9.48;;;4.22;;
30181;SDS011;16990;49.056;9.240;2022-11-15T01:16:26;4.90;;;3.00;;
30181;SDS011;16990;49.056;9.240;2022-11-15T01:18:52;5.05;;;3.25;;
30181;SDS011;16990;49.056;9.240;2022-11-15T01:21:21;9.57;;;3.50;;
30181;SDS011;16990;49.056;9.240;2022-11-15T01:23:47;5.68;;;3.38;;
30181;SDS011;16990;49.056;9.240;2022-11-15T01:26:14;6.28;;;2.75;;
30181;SDS011;16990;49.056;9.240;2022-11-15T01:28:41;4.28;;;2.95;;
30181;SDS011;16990;49.056;9.240;2022-11-15T01:31:11;3.22;;;2.50;;
30181;SDS011;16990;49.056;9.240;2022-11-15T01:33:39;7.82;;;2.88;;
30181;SDS011;16990;49.056;9.240;2022-11-15T01:36:08;5.43;;;2.70;;
30181;SDS011;16990;49.056;9.240;2022-11-15T01:38:38;7.03;;;3.00;;
30181;SDS011;16990;49.056;9.240;2022-11-15T01:41:05;3.38;;;2.80;;
30181;SDS011;16990;49.056;9.240;2022-11-15T01:43:33;4.20;;;2.53;;
30181;SDS011;16990;49.056;9.240;2022-11-15T01:46:02;6.30;;;2.50;;
30181;SDS011;16990;49.056;9.240;2022-11-15T01:48:32;10.27;;;3.17;;
30181;SDS011;16990;49.056;9.240;2022-11-15T01:51:00;6.05;;;2.78;;
30181;SDS011;16990;49.056;9.240;2022-11-15T01:53:30;4.18;;;2.92;;
30181;SDS011;16990;49.056;9.240;2022-11-15T01:56:00;7.88;;;2.78;;
30181;SDS011;16990;49.056;9.240;2022-11-15T01:58:30;7.97;;;3.13;;
30181;SDS011;16990;49.056;9.240;2022-11-15T02:00:58;9.00;;;3.20;;
30181;SDS011;16990;49.056;9.240;2022-11-15T02:03:26;5.88;;;2.72;;
30181;SDS011;16990;49.056;9.240;2022-11-15T02:06:01;6.78;;;2.83;;
30181;SDS011;16990;49.056;9.240;2022-11-15T02:08:31;4.63;;;2.78;;
30181;SDS011;16990;49.056;9.240;2022-11-15T02:10:57;7.93;;;3.05;;
30181;SDS011;16990;49.056;9.240;2022-11-15T02:13:26;5.70;;;3.17;;
30181;SDS011;16990;49.056;9.240;2022-11-15T02:15:56;6.35;;;3.03;;
30181;SDS011;16990;49.056;9.240;2022-11-15T02:18:31;5.88;;;2.80;;
30181;SDS011;16990;49.056;9.240;2022-11-15T02:21:04;7.00;;;3.22;;
30181;SDS011;16990;49.056;9.240;2022-11-15T02:26:50;8.60;;;2.83;;
30181;SDS011;16990;49.056;9.240;2022-11-15T02:29:51;4.93;;;2.85;;
30181;SDS011;16990;49.056;9.240;2022-11-15T02:32:34;5.00;;;2.53;;
30181;SDS011;16990;49.056;9.240;2022-11-15T02:35:09;9.57;;;3.50;;
30181;SDS011;16990;49.056;9.240;2022-11-15T02:37:42;6.95;;;3.25;;
30181;SDS011;16990;49.056;9.240;2022-11-15T02:40:14;11.60;;;3.33;;
30181;SDS011;16990;49.056;9.240;2022-11-15T02:42:47;8.57;;;3.47;;
30181;SDS011;16990;49.056;9.240;2022-11-15T02:45:39;4.65;;;2.67;;
30181;SDS011;16990;49.056;9.240;2022-11-15T02:48:12;4.65;;;3.47;;
30181;SDS011;16990;49.056;9.240;2022-11-15T02:50:40;5.93;;;3.28;;
30181;SDS011;16990;49.056;9.240;2022-11-15T02:53:07;4.90;;;2.90;;
30181;SDS011;16990;49.056;9.240;2022-11-15T02:55:34;4.00;;;2.75;;
30181;SDS011;16990;49.056;9.240;2022-11-15T02:58:11;5.30;;;3.30;;
30181;SDS011;16990;49.056;9.240;2022-11-15T03:00:51;6.57;;;3.00;;
30181;SDS011;16990;49.056;9.240;2022-11-15T03:03:30;5.57;;;3.33;;
30181;SDS011;16990;49.056;9.240;2022-11-15T03:06:10;6.45;;;3.00;;
30181;SDS011;16990;49.056;9.240;2022-11-15T03:08:48;5.70;;;3.03;;
30181;SDS011;16990;49.056;9.240;2022-11-15T03:11:23;9.40;;;3.35;;
30181;SDS011;16990;49.056;9.240;2022-11-15T03:13:53;10.13;;;3.13;;
30181;SDS011;16990;49.056;9.240;2022-11-15T03:16:26;4.57;;;3.20;;
30181;SDS011;16990;49.056;9.240;2022-11-15T03:19:00;8.10;;;3.70;;
30181;SDS011;16990;49.056;9.240;2022-11-15T03:21:31;9.25;;;3.72;;
30181;SDS011;16990;49.056;9.240;2022-11-15T03:24:01;4.57;;;2.80;;
30181;SDS011;16990;49.056;9.240;2022-11-15T03:26:31;4.97;;;2.75;;
30181;SDS011;16990;49.056;9.240;2022-11-15T03:29:01;7.78;;;3.63;;
30181;SDS011;16990;49.056;9.240;2022-11-15T03:31:32;4.90;;;3.00;;
30181;SDS011;16990;49.056;9.240;2022-11-15T03:34:18;8.75;;;3.15;;
30181;SDS011;16990;49.056;9.240;2022-11-15T03:39:16;5.10;;;3.83;;
30181;SDS011;16990;49.056;9.240;2022-11-15T03:41:43;8.40;;;3.40;;
30181;SDS011;16990;49.056;9.240;2022-11-15T03:44:16;8.55;;;3.67;;
30181;SDS011;16990;49.056;9.240;2022-11-15T03:46:55;5.47;;;3.15;;
30181;SDS011;16990;49.056;9.240;2022-11-15T03:49:27;7.20;;;3.53;;
30181;SDS011;16990;49.056;9.240;2022-11-15T03:51:59;5.40;;;3.28;;
30181;SDS011;16990;49.056;9.240;2022-11-15T03:54:28;6.72;;;3.63;;
30181;SDS011;16990;49.056;9.240;2022-11-15T03:56:55;7.30;;;3.67;;
30181;SDS011;16990;49.056;9.240;2022-11-15T03:59:22;5.45;;;3.63;;
30181;SDS011;16990;49.056;9.240;2022-11-15T04:01:48;11.73;;;3.63;;
30181;SDS011;16990;49.056;9.240;2022-11-15T04:04:15;10.40;;;4.68;;
30181;SDS011;16990;49.056;9.240;2022-11-15T04:06:43;5.68;;;3.55;;
30181;SDS011;16990;49.056;9.240;2022-11-15T04:09:10;5.18;;;3.67;;
30181;SDS011;16990;49.056;9.240;2022-11-15T04:11:37;7.00;;;3.60;;
30181;SDS011;16990;49.056;9.240;2022-11-15T04:14:03;6.45;;;4.13;;
30181;SDS011;16990;49.056;9.240;2022-11-15T04:16:30;5.47;;;2.78;;
30181;SDS011;16990;49.056;9.240;2022-11-15T04:18:56;6.85;;;3.72;;
30181;SDS011;16990;49.056;9.240;2022-11-15T04:21:41;5.68;;;3.13;;
30181;SDS011;16990;49.056;9.240;2022-11-15T04:24:26;6.05;;;3.08;;
30181;SDS011;16990;49.056;9.240;2022-11-15T04:26:53;5.38;;;2.63;;
30181;SDS011;16990;49.056;9.240;2022-11-15T04:29:20;4.93;;;2.97;;
30181;SDS011;16990;49.056;9.240;2022-11-15T04:32:02;4.90;;;2.85;;
30181;SDS011;16990;49.056;9.240;2022-11-15T04:34:29;6.85;;;2.80;;
30181;SDS011;16990;49.056;9.240;2022-11-15T04:36:55;6.32;;;3.10;;
30181;SDS011;16990;49.056;9.240;2022-11-15T04:39:39;6.85;;;4.13;;
30181;SDS011;16990;49.056;9.240;2022-11-15T04:42:06;7.38;;;3.65;;
30181;SDS011;16990;49.056;9.240;2022-11-15T04:44:33;7.43;;;2.90;;
30181;SDS011;16990;49.056;9.240;2022-11-15T04:47:00;4.65;;;3.05;;
30181;SDS011;16990;49.056;9.240;2022-11-15T04:49:27;5.35;;;3.35;;
30181;SDS011;16990;49.056;9.240;2022-11-15T04:51:54;8.93;;;4.22;;
30181;SDS011;16990;49.056;9.240;2022-11-15T04:54:20;5.10;;;3.40;;
30181;SDS011;16990;49.056;9.240;2022-11-15T04:56:48;7.85;;;3.35;;
30181;SDS011;16990;49.056;9.240;2022-11-15T04:59:15;5.45;;;3.22;;
30181;SDS011;16990;49.056;9.240;2022-11-15T05:01:42;6.18;;;2.95;;
30181;SDS011;16990;49.056;9.240;2022-11-15T05:04:08;6.28;;;3.20;;
30181;SDS011;16990;49.056;9.240;2022-11-15T05:06:47;8.68;;;4.45;;
30181;SDS011;16990;49.056;9.240;2022-11-15T05:09:15;9.00;;;4.47;;
30181;SDS011;16990;49.056;9.240;2022-11-15T05:11:42;7.68;;;3.85;;
30181;SDS011;16990;49.056;9.240;2022-11-15T05:14:10;11.07;;;4.18;;
30181;SDS011;16990;49.056;9.240;2022-11-15T05:16:37;5.90;;;3.63;;
30181;SDS011;16990;49.056;9.240;2022-11-15T05:19:04;7.13;;;3.72;;
30181;SDS011;16990;49.056;9.240;2022-11-15T05:21:31;4.85;;;3.05;;
30181;SDS011;16990;49.056;9.240;2022-11-15T05:23:58;8.60;;;3.88;;
30181;SDS011;16990;49.056;9.240;2022-11-15T05:26:25;5.15;;;3.22;;
30181;SDS011;16990;49.056;9.240;2022-11-15T05:28:53;8.38;;;3.15;;
30181;SDS011;16990;49.056;9.240;2022-11-15T05:31:21;9.70;;;3.60;;
30181;SDS011;16990;49.056;9.240;2022-11-15T05:33:49;6.95;;;3.17;;
30181;SDS011;16990;49.056;9.240;2022-11-15T05:36:17;4.53;;;3.10;;
30181;SDS011;16990;49.056;9.240;2022-11-15T05:38:48;4.55;;;3.00;;
30181;SDS011;16990;49.056;9.240;2022-11-15T05:41:15;5.20;;;3.03;;
30181;SDS011;16990;49.056;9.240;2022-11-15T05:43:45;6.75;;;2.90;;
30181;SDS011;16990;49.056;9.240;2022-11-15T05:46:14;4.93;;;3.10;;
30181;SDS011;16990;49.056;9.240;2022-11-15T05:48:43;5.22;;;3.25;;
30181;SDS011;16990;49.056;9.240;2022-11-15T05:51:13;9.93;;;2.70;;
30181;SDS011;16990;49.056;9.240;2022-11-15T05:53:43;9.23;;;2.95;;
30181;SDS011;16990;49.056;9.240;2022-11-15T05:56:11;6.70;;;3.30;;
30181;SDS011;16990;49.056;9.240;2022-11-15T05:58:38;6.68;;;4.10;;
30181;SDS011;16990;49.056;9.240;2022-11-15T06:01:05;7.10;;;4.30;;
30181;SDS011;16990;49.056;9.240;2022-11-15T06:03:32;12.82;;;3.70;;
30181;SDS011;16990;49.056;9.240;2022-11-15T06:06:00;6.68;;;3.25;;
30181;SDS011;16990;49.056;9.240;2022-11-15T06:08:27;5.57;;;3.40;;
30181;SDS011;16990;49.056;9.240;2022-11-15T06:10:53;7.40;;;3.58;;
30181;SDS011;16990;49.056;9.240;2022-11-15T06:13:20;6.35;;;3.17;;
30181;SDS011;16990;49.056;9.240;2022-11-15T06:15:47;6.75;;;3.15;;
30181;SDS011;16990;49.056;9.240;2022-11-15T06:18:14;10.40;;;3.33;;
30181;SDS011;16990;49.056;9.240;2022-11-15T06:20:40;5.22;;;3.13;;
30181;SDS011;16990;49.056;9.240;2022-11-15T06:23:08;8.02;;;2.90;;
30181;SDS011;16990;49.056;9.240;2022-11-15T06:25:35;6.18;;;3.65;;
30181;SDS011;16990;49.056;9.240;2022-11-15T06:28:02;5.60;;;3.92;;
30181;SDS011;16990;49.056;9.240;2022-11-15T06:30:29;5.65;;;3.38;;
30181;SDS011;16990;49.056;9.240;2022-11-15T06:32:59;7.00;;;3.90;;
30181;SDS011;16990;49.056;9.240;2022-11-15T06:35:27;4.50;;;3.53;;
30181;SDS011;16990;49.056;9.240;2022-11-15T06:37:54;10.55;;;4.85;;
30181;SDS011;16990;49.056;9.240;2022-11-15T06:40:23;6.03;;;4.55;;
30181;SDS011;16990;49.056;9.240;2022-11-15T06:42:50;7.82;;;4.85;;
30181;SDS011;16990;49.056;9.240;2022-11-15T06:45:16;10.77;;;4.70;;
30181;SDS011;16990;49.056;9.240;2022-11-15T06:47:46;9.45;;;5.07;;
30181;SDS011;16990;49.056;9.240;2022-11-15T06:50:13;9.82;;;4.75;;
30181;SDS011;16990;49.056;9.240;2022-11-15T06:52:40;13.38;;;5.45;;
30181;SDS011;16990;49.056;9.240;2022-11-15T06:55:07;13.98;;;5.63;;
30181;SDS011;16990;49.056;9.240;2022-11-15T06:57:36;9.43;;;4.47;;
30181;SDS011;16990;49.056;9.240;2022-11-15T07:00:03;7.03;;;3.90;;
30181;SDS011;16990;49.056;9.240;2022-11-15T07:02:31;12.05;;;3.45;;
30181;SDS011;16990;49.056;9.240;2022-11-15T07:04:57;8.27;;;3.78;;
30181;SDS011;16990;49.056;9.240;2022-11-15T07:07:24;19.73;;;5.78;;
30181;SDS011;16990;49.056;9.240;2022-11-15T07:09:51;11.77;;;4.32;;
30181;SDS011;16990;49.056;9.240;2022-11-15T07:12:18;9.52;;;3.70;;
30181;SDS011;16990;49.056;9.240;2022-11-15T07:14:46;9.43;;;3.55;;
30181;SDS011;16990;49.056;9.240;2022-11-15T07:17:12;6.60;;;2.88;;
30181;SDS011;16990;49.056;9.240;2022-11-15T07:19:39;7.30;;;3.13;;
30181;SDS011;16990;49.056;9.240;2022-11-15T07:22:06;3.80;;;2.47;;
30181;SDS011;16990;49.056;9.240;2022-11-15T07:24:32;5.90;;;2.90;;
30181;SDS011;16990;49.056;9.240;2022-11-15T07:26:59;10.85;;;2.60;;
30181;SDS011;16990;49.056;9.240;2022-11-15T07:29:26;7.25;;;2.67;;
30181;SDS011;16990;49.056;9.240;2022-11-15T07:31:54;5.65;;;2.30;;
30181;SDS011;16990;49.056;9.240;2022-11-15T07:34:21;5.07;;;3.05;;
30181;SDS011;16990;49.056;9.240;2022-11-15T07:36:48;6.40;;;2.30;;
30181;SDS011;16990;49.056;9.240;2022-11-15T07:39:15;5.95;;;2.58;;
30181;SDS011;16990;49.056;9.240;2022-11-15T07:41:42;6.53;;;2.10;;
30181;SDS011;16990;49.056;9.240;2022-11-15T07:44:09;5.78;;;2.47;;
30181;SDS011;16990;49.056;9.240;2022-11-15T07:46:36;4.93;;;2.72;;
30181;SDS011;16990;49.056;9.240;2022-11-15T07:49:05;7.47;;;2.20;;
30181;SDS011;16990;49.056;9.240;2022-11-15T07:51:32;13.00;;;2.40;;
30181;SDS011;16990;49.056;9.240;2022-11-15T07:53:58;8.50;;;2.30;;
30181;SDS011;16990;49.056;9.240;2022-11-15T07:56:25;6.28;;;2.35;;
30181;SDS011;16990;49.056;9.240;2022-11-15T07:58:52;6.03;;;2.50;;
30181;SDS011;16990;49.056;9.240;2022-11-15T08:01:18;3.35;;;2.10;;
30181;SDS011;16990;49.056;9.240;2022-11-15T08:03:45;4.47;;;2.47;;
30181;SDS011;16990;49.056;9.240;2022-11-15T08:06:13;4.65;;;2.75;;
30181;SDS011;16990;49.056;9.240;2022-11-15T08:08:40;6.85;;;2.95;;
30181;SDS011;16990;49.056;9.240;2022-11-15T08:11:06;14.38;;;2.17;;
30181;SDS011;16990;49.056;9.240;2022-11-15T08:13:33;5.32;;;2.13;;
30181;SDS011;16990;49.056;9.240;2022-11-15T08:16:01;6.00;;;2.38;;
30181;SDS011;16990;49.056;9.240;2022-11-15T08:18:30;3.53;;;2.28;;
30181;SDS011;16990;49.056;9.240;2022-11-15T08:20:58;6.88;;;2.38;;
30181;SDS011;16990;49.056;9.240;2022-11-15T08:23:27;9.32;;;2.53;;
30181;SDS011;16990;49.056;9.240;2022-11-15T08:25:58;7.10;;;2.85;;
30181;SDS011;16990;49.056;9.240;2022-11-15T08:28:25;6.78;;;2.60;;
30181;SDS011;16990;49.056;9.240;2022-11-15T08:30:52;3.15;;;2.28;;
30181;SDS011;16990;49.056;9.240;2022-11-15T08:33:19;6.38;;;2.72;;
30181;SDS011;16990;49.056;9.240;2022-11-15T08:35:46;5.85;;;2.67;;
30181;SDS011;16990;49.056;9.240;2022-11-15T08:38:12;16.67;;;3.55;;
30181;SDS011;16990;49.056;9.240;2022-11-15T08:40:40;11.43;;;3.70;;
30181;SDS011;16990;49.056;9.240;2022-11-15T08:43:07;7.65;;;2.50;;
30181;SDS011;16990;49.056;9.240;2022-11-15T08:45:34;8.63;;;2.72;;
30181;SDS011;16990;49.056;9.240;2022-11-15T08:48:01;5.53;;;2.80;;
30181;SDS011;16990;49.056;9.240;2022-11-15T08:50:29;5.45;;;2.63;;
30181;SDS011;16990;49.056;9.240;2022-11-15T08:52:56;9.25;;;2.47;;
30181;SDS011;16990;49.056;9.240;2022-11-15T08:55:23;4.35;;;2.28;;
30181;SDS011;16990;49.056;9.240;2022-11-15T08:57:51;5.75;;;2.70;;
30181;SDS011;16990;49.056;9.240;2022-11-15T09:00:18;7.90;;;3.47;;
30181;SDS011;16990;49.056;9.240;2022-11-15T09:02:46;8.40;;;4.30;;
30181;SDS011;16990;49.056;9.240;2022-11-15T09:05:13;10.45;;;6.60;;
30181;SDS011;16990;49.056;9.240;2022-11-15T09:07:40;8.18;;;4.07;;
30181;SDS011;16990;49.056;9.240;2022-11-15T09:10:07;10.25;;;3.40;;
30181;SDS011;16990;49.056;9.240;2022-11-15T09:12:34;13.15;;;3.08;;
30181;SDS011;16990;49.056;9.240;2022-11-15T09:15:03;10.60;;;2.95;;
30181;SDS011;16990;49.056;9.240;2022-11-15T09:17:30;10.05;;;2.78;;
30181;SDS011;16990;49.056;9.240;2022-11-15T09:19:57;5.22;;;2.83;;
30181;SDS011;16990;49.056;9.240;2022-11-15T09:22:24;7.28;;;2.80;;
30181;SDS011;16990;49.056;9.240;2022-11-15T09:24:51;6.47;;;2.75;;
30181;SDS011;16990;49.056;9.240;2022-11-15T09:27:18;5.60;;;2.70;;
30181;SDS011;16990;49.056;9.240;2022-11-15T09:29:44;8.13;;;3.42;;
30181;SDS011;16990;49.056;9.240;2022-11-15T09:32:12;6.35;;;2.55;;
30181;SDS011;16990;49.056;9.240;2022-11-15T09:34:39;6.55;;;2.67;;
30181;SDS011;16990;49.056;9.240;2022-11-15T09:37:06;3.97;;;2.25;;
30181;SDS011;16990;49.056;9.240;2022-11-15T09:39:32;5.18;;;2.30;;
30181;SDS011;16990;49.056;9.240;2022-11-15T09:42:14;8.55;;;3.33;;
30181;SDS011;16990;49.056;9.240;2022-11-15T09:44:58;5.47;;;2.47;;
30181;SDS011;16990;49.056;9.240;2022-11-15T09:47:44;5.47;;;2.63;;
30181;SDS011;16990;49.056;9.240;2022-11-15T09:53:08;3.22;;;2.25;;
30181;SDS011;16990;49.056;9.240;2022-11-15T09:55:40;7.22;;;2.47;;
30181;SDS011;16990;49.056;9.240;2022-11-15T09:58:18;10.50;;;2.17;;
30181;SDS011;16990;49.056;9.240;2022-11-15T10:00:51;7.65;;;1.92;;
30181;SDS011;16990;49.056;9.240;2022-11-15T10:03:22;5.07;;;2.03;;
30181;SDS011;16990;49.056;9.240;2022-11-15T10:05:53;8.63;;;2.35;;
30181;SDS011;16990;49.056;9.240;2022-11-15T10:08:26;3.25;;;1.83;;
30181;SDS011;16990;49.056;9.240;2022-11-15T10:11:02;4.90;;;2.20;;
30181;SDS011;16990;49.056;9.240;2022-11-15T10:13:32;3.33;;;2.15;;
30181;SDS011;16990;49.056;9.240;2022-11-15T10:16:02;6.13;;;1.95;;
30181;SDS011;16990;49.056;9.240;2022-11-15T10:18:39;5.72;;;1.92;;
30181;SDS011;16990;49.056;9.240;2022-11-15T10:21:17;8.65;;;4.88;;
30181;SDS011;16990;49.056;9.240;2022-11-15T10:23:48;10.35;;;4.35;;
30181;SDS011;16990;49.056;9.240;2022-11-15T10:26:16;12.70;;;3.33;;
30181;SDS011;16990;49.056;9.240;2022-11-15T10:28:43;8.07;;;2.25;;
30181;SDS011;16990;49.056;9.240;2022-11-15T10:31:20;9.27;;;2.55;;
30181;SDS011;16990;49.056;9.240;2022-11-15T10:33:50;15.35;;;2.15;;
30181;SDS011;16990;49.056;9.240;2022-11-15T10:36:19;5.45;;;2.10;;
30181;SDS011;16990;49.056;9.240;2022-11-15T10:38:53;9.63;;;2.20;;
30181;SDS011;16990;49.056;9.240;2022-11-15T10:41:22;6.30;;;2.38;;
30181;SDS011;16990;49.056;9.240;2022-11-15T10:47:03;5.85;;;2.53;;
30181;SDS011;16990;49.056;9.240;2022-11-15T10:49:52;3.90;;;2.13;;
30181;SDS011;16990;49.056;9.240;2022-11-15T10:52:24;5.35;;;2.00;;
30181;SDS011;16990;49.056;9.240;2022-11-15T10:54:51;4.68;;;2.05;;
30181;SDS011;16990;49.056;9.240;2022-11-15T10:57:22;4.43;;;1.90;;
30181;SDS011;16990;49.056;9.240;2022-11-15T10:59:51;3.38;;;1.73;;
30181;SDS011;16990;49.056;9.240;2022-11-15T11:02:24;6.28;;;2.25;;
30181;SDS011;16990;49.056;9.240;2022-11-15T11:07:23;3.17;;;2.03;;
30181;SDS011;16990;49.056;9.240;2022-11-15T11:09:56;4.28;;;1.85;;
30181;SDS011;16990;49.056;9.240;2022-11-15T11:12:27;2.42;;;1.48;;
30181;SDS011;16990;49.056;9.240;2022-11-15T11:14:57;5.20;;;2.03;;
30181;SDS011;16990;49.056;9.240;2022-11-15T11:17:28;3.38;;;2.00;;
30181;SDS011;16990;49.056;9.240;2022-11-15T11:20:04;6.07;;;2.30;;
30181;SDS011;16990;49.056;9.240;2022-11-15T11:22:38;3.75;;;2.05;;
30181;SDS011;16990;49.056;9.240;2022-11-15T11:25:18;11.07;;;2.17;;
30181;SDS011;16990;49.056;9.240;2022-11-15T11:27:58;13.68;;;2.38;;
30181;SDS011;16990;49.056;9.240;2022-11-15T11:30:41;12.98;;;6.47;;
30181;SDS011;16990;49.056;9.240;2022-11-15T11:33:16;9.40;;;3.80;;
30181;SDS011;16990;49.056;9.240;2022-11-15T11:35:58;7.65;;;4.18;;
30181;SDS011;16990;49.056;9.240;2022-11-15T11:38:34;5.60;;;2.55;;
30181;SDS011;16990;49.056;9.240;2022-11-15T11:41:16;8.10;;;3.22;;
30181;SDS011;16990;49.056;9.240;2022-11-15T11:44:01;6.68;;;3.35;;
30181;SDS011;16990;49.056;9.240;2022-11-15T11:46:45;2.90;;;2.15;;
30181;SDS011;16990;49.056;9.240;2022-11-15T11:49:16;10.07;;;4.05;;
30181;SDS011;16990;49.056;9.240;2022-11-15T11:51:50;10.75;;;6.22;;
30181;SDS011;16990;49.056;9.240;2022-11-15T11:54:24;14.70;;;5.95;;
30181;SDS011;16990;49.056;9.240;2022-11-15T11:57:01;9.73;;;4.57;;
30181;SDS011;16990;49.056;9.240;2022-11-15T11:59:33;7.90;;;3.83;;
30181;SDS011;16990;49.056;9.240;2022-11-15T12:02:11;8.27;;;3.30;;
30181;SDS011;16990;49.056;9.240;2022-11-15T12:04:43;14.40;;;3.55;;
30181;SDS011;16990;49.056;9.240;2022-11-15T12:07:17;7.13;;;3.30;;
30181;SDS011;16990;49.056;9.240;2022-11-15T12:09:49;9.63;;;3.67;;
30181;SDS011;16990;49.056;9.240;2022-11-15T12:12:23;6.43;;;3.17;;
30181;SDS011;16990;49.056;9.240;2022-11-15T12:14:55;5.03;;;3.08;;
30181;SDS011;16990;49.056;9.240;2022-11-15T12:17:24;6.95;;;3.67;;
30181;SDS011;16990;49.056;9.240;2022-11-15T12:19:52;13.65;;;4.22;;
30181;SDS011;16990;49.056;9.240;2022-11-15T12:22:26;6.20;;;3.17;;
30181;SDS011;16990;49.056;9.240;2022-11-15T12:25:00;6.80;;;2.95;;
30181;SDS011;16990;49.056;9.240;2022-11-15T12:27:32;11.65;;;3.10;;
30181;SDS011;16990;49.056;9.240;2022-11-15T12:30:04;7.82;;;4.53;;
30181;SDS011;16990;49.056;9.240;2022-11-15T12:32:37;8.85;;;3.50;;
30181;SDS011;16990;49.056;9.240;2022-11-15T12:35:20;5.45;;;2.72;;
30181;SDS011;16990;49.056;9.240;2022-11-15T12:37:51;20.13;;;4.03;;
30181;SDS011;16990;49.056;9.240;2022-11-15T12:40:24;6.68;;;3.00;;
30181;SDS011;16990;49.056;9.240;2022-11-15T12:42:59;8.43;;;3.95;;
30181;SDS011;16990;49.056;9.240;2022-11-15T12:45:50;6.40;;;3.17;;
30181;SDS011;16990;49.056;9.240;2022-11-15T12:51:19;3.95;;;2.35;;
30181;SDS011;16990;49.056;9.240;2022-11-15T12:53:49;5.53;;;2.70;;
30181;SDS011;16990;49.056;9.240;2022-11-15T12:56:22;7.80;;;2.50;;
30181;SDS011;16990;49.056;9.240;2022-11-15T12:58:50;7.70;;;2.38;;
30181;SDS011;16990;49.056;9.240;2022-11-15T13:04:24;8.02;;;2.50;;
30181;SDS011;16990;49.056;9.240;2022-11-15T13:06:54;6.10;;;2.45;;
30181;SDS011;16990;49.056;9.240;2022-11-15T13:21:18;6.45;;;2.65;;
30181;SDS011;16990;49.056;9.240;2022-11-15T13:24:04;11.07;;;4.03;;
30181;SDS011;16990;49.056;9.240;2022-11-15T13:26:40;26.35;;;8.75;;
30181;SDS011;16990;49.056;9.240;2022-11-15T13:29:14;11.90;;;5.70;;
30181;SDS011;16990;49.056;9.240;2022-11-15T13:31:43;14.32;;;2.97;;
30181;SDS011;16990;49.056;9.240;2022-11-15T13:34:15;8.00;;;2.80;;
30181;SDS011;16990;49.056;9.240;2022-11-15T13:36:50;5.57;;;2.60;;
30181;SDS011;16990;49.056;9.240;2022-11-15T13:39:23;5.57;;;2.63;;
30181;SDS011;16990;49.056;9.240;2022-11-15T13:41:54;8.57;;;2.60;;
30181;SDS011;16990;49.056;9.240;2022-11-15T13:44:21;6.00;;;2.47;;
30181;SDS011;16990;49.056;9.240;2022-11-15T13:46:49;8.35;;;2.90;;
30181;SDS011;16990;49.056;9.240;2022-11-15T13:49:29;4.80;;;2.60;;
30181;SDS011;16990;49.056;9.240;2022-11-15T13:51:57;5.88;;;2.78;;
30181;SDS011;16990;49.056;9.240;2022-11-15T13:54:25;12.75;;;2.47;;
30181;SDS011;16990;49.056;9.240;2022-11-15T13:56:57;5.30;;;3.03;;
30181;SDS011;16990;49.056;9.240;2022-11-15T13:59:26;8.48;;;3.72;;
30181;SDS011;16990;49.056;9.240;2022-11-15T14:01:55;12.80;;;3.92;;
30181;SDS011;16990;49.056;9.240;2022-11-15T14:04:26;7.03;;;3.08;;
30181;SDS011;16990;49.056;9.240;2022-11-15T14:06:58;8.73;;;4.10;;
30181;SDS011;16990;49.056;9.240;2022-11-15T14:14:52;18.05;;;3.90;;
30181;SDS011;16990;49.056;9.240;2022-11-15T14:17:20;20.33;;;3.60;;
30181;SDS011;16990;49.056;9.240;2022-11-15T14:19:48;13.32;;;2.90;;
30181;SDS011;16990;49.056;9.240;2022-11-15T14:22:18;9.13;;;2.60;;
30181;SDS011;16990;49.056;9.240;2022-11-15T14:24:55;5.32;;;2.30;;
30181;SDS011;16990;49.056;9.240;2022-11-15T14:28:07;4.90;;;2.08;;
30181;SDS011;16990;49.056;9.240;2022-11-15T14:30:38;8.52;;;2.38;;
30181;SDS011;16990;49.056;9.240;2022-11-15T14:33:14;5.82;;;2.67;;
30181;SDS011;16990;49.056;9.240;2022-11-15T14:35:45;7.43;;;2.55;;
30181;SDS011;16990;49.056;9.240;2022-11-15T14:38:11;4.40;;;2.55;;
30181;SDS011;16990;49.056;9.240;2022-11-15T14:40:41;7.25;;;2.10;;
30181;SDS011;16990;49.056;9.240;2022-11-15T14:43:10;6.53;;;2.25;;
30181;SDS011;16990;49.056;9.240;2022-11-15T14:45:38;6.65;;;2.33;;
30181;SDS011;16990;49.056;9.240;2022-11-15T14:48:05;6.00;;;2.40;;
30181;SDS011;16990;49.056;9.240;2022-11-15T14:50:32;4.47;;;2.60;;
30181;SDS011;16990;49.056;9.240;2022-11-15T14:53:00;6.13;;;3.13;;
30181;SDS011;16990;49.056;9.240;2022-11-15T14:55:28;5.45;;;2.70;;
30181;SDS011;16990;49.056;9.240;2022-11-15T14:57:57;5.35;;;2.47;;
30181;SDS011;16990;49.056;9.240;2022-11-15T15:00:25;8.75;;;2.58;;
30181;SDS011;16990;49.056;9.240;2022-11-15T15:02:53;5.40;;;2.20;;
30181;SDS011;16990;49.056;9.240;2022-11-15T15:05:20;7.03;;;2.47;;
30181;SDS011;16990;49.056;9.240;2022-11-15T15:07:49;4.40;;;2.45;;
30181;SDS011;16990;49.056;9.240;2022-11-15T15:10:18;7.18;;;2.38;;
30181;SDS011;16990;49.056;9.240;2022-11-15T15:12:45;4.85;;;2.45;;
30181;SDS011;16990;49.056;9.240;2022-11-15T15:15:13;5.07;;;2.58;;
30181;SDS011;16990;49.056;9.240;2022-11-15T15:17:42;5.00;;;2.45;;
30181;SDS011;16990;49.056;9.240;2022-11-15T15:20:09;3.40;;;2.40;;
30181;SDS011;16990;49.056;9.240;2022-11-15T15:22:37;6.45;;;3.08;;
30181;SDS011;16990;49.056;9.240;2022-11-15T15:25:08;8.93;;;3.60;;
30181;SDS011;16990;49.056;9.240;2022-11-15T15:27:46;5.90;;;3.20;;
30181;SDS011;16990;49.056;9.240;2022-11-15T15:30:13;7.05;;;3.17;;
30181;SDS011;16990;49.056;9.240;2022-11-15T15:32:39;13.52;;;3.78;;
30181;SDS011;16990;49.056;9.240;2022-11-15T15:35:10;7.60;;;3.33;;
30181;SDS011;16990;49.056;9.240;2022-11-15T15:37:38;3.75;;;2.70;;
30181;SDS011;16990;49.056;9.240;2022-11-15T15:51:01;15.82;;;7.88;;